sensor_id;sensor_type;location;lat;lon;timestamp;pressure;altitude;pressure_sealevel;temperature;humidity
47883;BME280;37739;50.350;7.578;2023-11-21T00:00:24;99041.09;;;9.08;100.00
47883;BME280;37739;50.350;7.578;2023-11-21T00:02:50;99040.28;;;9.09;100.00
47883;BME280;37739;50.350;7.578;2023-11-21T00:05:16;99041.16;;;9.09;100.00
47883;BME280;37739;50.350;7.578;2023-11-21T00:07:43;99046.28;;;9.09;100.00
47883;BME280;37739;50.350;7.578;2023-11-21T00:10:12;99046.28;;;9.09;100.00
47883;BME280;37739;50.350;7.578;2023-11-21T00:12:39;99052.19;;;9.08;100.00
47883;BME280;37739;50.350;7.578;2023-11-21T00:15:11;99047.06;;;9.08;100.00
47883;BME280;37739;50.350;7.578;2023-11-21T00:17:40;99047.06;;;9.08;100.00
47883;BME280;37739;50.350;7.578;2023-11-21T00:20:06;99047.13;;;9.10;100.00
47883;BME280;37739;50.350;7.578;2023-11-21T00:22:35;99054.84;;;9.11;100.00
47883;BME280;37739;50.350;7.578;2023-11-21T00:25:01;99050.59;;;9.12;100.00
47883;BME280;37739;50.350;7.578;2023-11-21T00:27:28;99052.31;;;9.11;100.00
47883;BME280;37739;50.350;7.578;2023-11-21T00:29:54;99052.31;;;9.11;100.00
47883;BME280;37739;50.350;7.578;2023-11-21T00:32:21;99065.94;;;9.12;100.00
47883;BME280;37739;50.350;7.578;2023-11-21T00:34:46;99060.03;;;9.13;100.00
47883;BME280;37739;50.350;7.578;2023-11-21T00:37:14;99065.94;;;9.12;100.00
47883;BME280;37739;50.350;7.578;2023-11-21T00:39:39;99067.72;;;9.13;100.00
47883;BME280;37739;50.350;7.578;2023-11-21T00:42:07;99068.47;;;9.10;100.00
47883;BME280;37739;50.350;7.578;2023-11-21T00:44:37;99072.78;;;9.11;100.00
47883;BME280;37739;50.350;7.578;2023-11-21T00:47:05;99072.78;;;9.11;100.00
47883;BME280;37739;50.350;7.578;2023-11-21T00:49:33;99071.84;;;9.09;100.00
47883;BME280;37739;50.350;7.578;2023-11-21T00:52:01;99076.00;;;9.06;100.00
47883;BME280;37739;50.350;7.578;2023-11-21T00:54:29;99075.88;;;9.01;100.00
47883;BME280;37739;50.350;7.578;2023-11-21T00:56:55;99081.72;;;8.97;100.00
47883;BME280;37739;50.350;7.578;2023-11-21T00:59:20;99079.97;;;8.96;100.00
47883;BME280;37739;50.350;7.578;2023-11-21T01:01:48;99085.22;;;9.00;100.00
47883;BME280;37739;50.350;7.578;2023-11-21T01:04:13;99089.41;;;8.98;100.00
47883;BME280;37739;50.350;7.578;2023-11-21T01:06:38;99098.91;;;9.01;100.00
47883;BME280;37739;50.350;7.578;2023-11-21T01:09:04;99089.47;;;9.00;100.00
47883;BME280;37739;50.350;7.578;2023-11-21T01:11:36;99101.34;;;8.98;100.00
47883;BME280;37739;50.350;7.578;2023-11-21T01:14:05;99103.91;;;8.98;100.00
47883;BME280;37739;50.350;7.578;2023-11-21T01:16:38;99105.66;;;8.99;100.00
47883;BME280;37739;50.350;7.578;2023-11-21T01:19:05;99108.09;;;8.96;100.00
47883;BME280;37739;50.350;7.578;2023-11-21T01:21:31;99113.88;;;8.90;100.00
47883;BME280;37739;50.350;7.578;2023-11-21T01:23:59;99115.66;;;8.91;100.00
47883;BME280;37739;50.350;7.578;2023-11-21T01:26:24;99115.66;;;8.93;100.00
47883;BME280;37739;50.350;7.578;2023-11-21T01:28:52;99115.84;;;8.97;100.00
47883;BME280;37739;50.350;7.578;2023-11-21T01:31:17;99123.34;;;8.93;100.00
47883;BME280;37739;50.350;7.578;2023-11-21T01:33:43;99123.94;;;8.84;100.00
47883;BME280;37739;50.350;7.578;2023-11-21T01:36:09;99122.19;;;8.83;100.00
47883;BME280;37739;50.350;7.578;2023-11-21T01:38:35;99130.75;;;8.85;100.00
47883;BME280;37739;50.350;7.578;2023-11-21T01:41:00;99139.16;;;8.81;100.00
47883;BME280;37739;50.350;7.578;2023-11-21T01:43:26;99138.91;;;8.73;100.00
47883;BME280;37739;50.350;7.578;2023-11-21T01:45:55;99140.66;;;8.74;100.00
47883;BME280;37739;50.350;7.578;2023-11-21T01:48:23;99136.41;;;8.75;100.00
47883;BME280;37739;50.350;7.578;2023-11-21T01:50:49;99133.06;;;8.77;100.00
47883;BME280;37739;50.350;7.578;2023-11-21T01:53:15;99137.06;;;8.69;100.00
47883;BME280;37739;50.350;7.578;2023-11-21T01:55:44;99144.91;;;8.74;100.00
47883;BME280;37739;50.350;7.578;2023-11-21T01:58:12;99143.28;;;8.76;100.00
47883;BME280;37739;50.350;7.578;2023-11-21T02:00:38;99142.44;;;8.77;100.00
47883;BME280;37739;50.350;7.578;2023-11-21T02:03:06;99143.97;;;8.72;100.00
47883;BME280;37739;50.350;7.578;2023-11-21T02:05:34;99144.28;;;8.81;100.00
47883;BME280;37739;50.350;7.578;2023-11-21T02:08:00;99137.06;;;8.69;100.00
47883;BME280;37739;50.350;7.578;2023-11-21T02:10:25;99138.91;;;8.73;100.00
47883;BME280;37739;50.350;7.578;2023-11-21T02:12:51;99144.78;;;8.71;100.00
47883;BME280;37739;50.350;7.578;2023-11-21T02:15:19;99142.38;;;8.75;100.00
47883;BME280;37739;50.350;7.578;2023-11-21T02:17:51;99144.06;;;8.75;100.00
47883;BME280;37739;50.350;7.578;2023-11-21T02:20:17;99150.69;;;8.68;100.00
47883;BME280;37739;50.350;7.578;2023-11-21T02:22:51;99153.06;;;8.63;100.00
47883;BME280;37739;50.350;7.578;2023-11-21T02:25:27;99152.31;;;8.66;100.00
47883;BME280;37739;50.350;7.578;2023-11-21T02:27:57;99153.72;;;8.58;100.00
47883;BME280;37739;50.350;7.578;2023-11-21T02:30:26;99150.03;;;8.50;100.00
47883;BME280;37739;50.350;7.578;2023-11-21T02:32:53;99154.94;;;8.43;100.00
47883;BME280;37739;50.350;7.578;2023-11-21T02:35:21;99160.31;;;8.51;100.00
47883;BME280;37739;50.350;7.578;2023-11-21T02:37:51;99165.50;;;8.53;100.00
47883;BME280;37739;50.350;7.578;2023-11-21T02:40:16;99168.13;;;8.56;100.00
47883;BME280;37739;50.350;7.578;2023-11-21T02:42:50;99166.25;;;8.50;100.00
47883;BME280;37739;50.350;7.578;2023-11-21T02:45:21;99164.47;;;8.48;100.00
47883;BME280;37739;50.350;7.578;2023-11-21T02:47:49;99158.31;;;8.42;100.00
47883;BME280;37739;50.350;7.578;2023-11-21T02:50:14;99160.75;;;8.41;100.00
47883;BME280;37739;50.350;7.578;2023-11-21T02:52:46;99156.78;;;8.48;100.00
47883;BME280;37739;50.350;7.578;2023-11-21T02:55:11;99158.06;;;8.36;100.00
47883;BME280;37739;50.350;7.578;2023-11-21T02:57:39;99163.94;;;8.34;100.00
47883;BME280;37739;50.350;7.578;2023-11-21T03:00:09;99166.66;;;8.38;100.00
47883;BME280;37739;50.350;7.578;2023-11-21T03:02:38;99168.88;;;8.29;100.00
47883;BME280;37739;50.350;7.578;2023-11-21T03:05:07;99171.56;;;8.32;100.00
47883;BME280;37739;50.350;7.578;2023-11-21T03:07:36;99176.66;;;8.32;100.00
47883;BME280;37739;50.350;7.578;2023-11-21T03:10:03;99176.31;;;8.23;100.00
47883;BME280;37739;50.350;7.578;2023-11-21T03:12:32;99182.28;;;8.23;100.00
47883;BME280;37739;50.350;7.578;2023-11-21T03:14:57;99180.56;;;8.22;100.00
47883;BME280;37739;50.350;7.578;2023-11-21T03:17:22;99182.34;;;8.25;100.00
47883;BME280;37739;50.350;7.578;2023-11-21T03:19:49;99185.63;;;8.21;100.00
47883;BME280;37739;50.350;7.578;2023-11-21T03:22:19;99191.66;;;8.23;100.00
47883;BME280;37739;50.350;7.578;2023-11-21T03:24:45;99191.72;;;8.24;100.00
47883;BME280;37739;50.350;7.578;2023-11-21T03:27:10;99195.78;;;8.19;100.00
47883;BME280;37739;50.350;7.578;2023-11-21T03:29:35;99205.19;;;8.20;100.00
47883;BME280;37739;50.350;7.578;2023-11-21T03:32:01;99196.66;;;8.20;100.00
47883;BME280;37739;50.350;7.578;2023-11-21T03:34:28;99205.28;;;8.23;100.00
47883;BME280;37739;50.350;7.578;2023-11-21T03:36:56;99198.41;;;8.21;100.00
47883;BME280;37739;50.350;7.578;2023-11-21T03:39:23;99213.72;;;8.21;100.00
47883;BME280;37739;50.350;7.578;2023-11-21T03:41:53;99206.91;;;8.21;100.00
47883;BME280;37739;50.350;7.578;2023-11-21T03:44:18;99213.88;;;8.25;100.00
47883;BME280;37739;50.350;7.578;2023-11-21T03:46:43;99213.38;;;8.34;100.00
47883;BME280;37739;50.350;7.578;2023-11-21T03:49:09;99214.28;;;8.36;100.00
47883;BME280;37739;50.350;7.578;2023-11-21T03:51:34;99222.66;;;8.32;100.00
47883;BME280;37739;50.350;7.578;2023-11-21T03:54:00;99225.06;;;8.28;100.00
47883;BME280;37739;50.350;7.578;2023-11-21T03:56:25;99222.16;;;8.18;100.00
47883;BME280;37739;50.350;7.578;2023-11-21T03:58:50;99223.19;;;8.23;100.00
47883;BME280;37739;50.350;7.578;2023-11-21T04:01:22;99230.56;;;8.16;100.00
47883;BME280;37739;50.350;7.578;2023-11-21T04:03:48;99234.81;;;8.15;100.00
47883;BME280;37739;50.350;7.578;2023-11-21T04:06:17;99235.72;;;8.17;100.00
47883;BME280;37739;50.350;7.578;2023-11-21T04:08:43;99235.03;;;8.21;100.00
47883;BME280;37739;50.350;7.578;2023-11-21T04:11:09;99240.13;;;8.21;100.00
47883;BME280;37739;50.350;7.578;2023-11-21T04:13:39;99235.09;;;8.23;100.00
47883;BME280;37739;50.350;7.578;2023-11-21T04:16:08;99242.75;;;8.23;100.00
47883;BME280;37739;50.350;7.578;2023-11-21T04:18:37;99249.72;;;8.27;100.00
47883;BME280;37739;50.350;7.578;2023-11-21T04:21:03;99249.50;;;8.21;100.00
47883;BME280;37739;50.350;7.578;2023-11-21T04:23:31;99253.56;;;8.16;100.00
47883;BME280;37739;50.350;7.578;2023-11-21T04:25:57;99256.19;;;8.17;100.00
47883;BME280;37739;50.350;7.578;2023-11-21T04:28:23;99258.84;;;8.20;100.00
47883;BME280;37739;50.350;7.578;2023-11-21T04:30:51;99261.34;;;8.19;100.00
47883;BME280;37739;50.350;7.578;2023-11-21T04:33:16;99272.38;;;8.18;100.00
47883;BME280;37739;50.350;7.578;2023-11-21T04:35:42;99267.38;;;8.21;100.00
47883;BME280;37739;50.350;7.578;2023-11-21T04:38:07;99276.81;;;8.22;100.00
47883;BME280;37739;50.350;7.578;2023-11-21T04:40:33;99278.31;;;8.17;100.00
47883;BME280;37739;50.350;7.578;2023-11-21T04:43:00;99282.59;;;8.18;100.00
47883;BME280;37739;50.350;7.578;2023-11-21T04:45:28;99297.13;;;8.19;100.00
47883;BME280;37739;50.350;7.578;2023-11-21T04:47:54;99299.03;;;8.24;100.00
47883;BME280;37739;50.350;7.578;2023-11-21T04:50:19;99293.38;;;8.33;100.00
47883;BME280;37739;50.350;7.578;2023-11-21T04:52:45;99300.19;;;8.33;100.00
47883;BME280;37739;50.350;7.578;2023-11-21T04:55:10;99301.06;;;8.33;100.00
47883;BME280;37739;50.350;7.578;2023-11-21T04:57:41;99305.25;;;8.31;100.00
47883;BME280;37739;50.350;7.578;2023-11-21T05:00:08;99304.28;;;8.28;100.00
47883;BME280;37739;50.350;7.578;2023-11-21T05:02:37;99306.72;;;8.24;100.00
47883;BME280;37739;50.350;7.578;2023-11-21T05:05:03;99316.16;;;8.27;100.00
47883;BME280;37739;50.350;7.578;2023-11-21T05:07:31;99316.88;;;8.23;100.00
47883;BME280;37739;50.350;7.578;2023-11-21T05:09:58;99318.72;;;8.27;100.00
47883;BME280;37739;50.350;7.578;2023-11-21T05:12:26;99311.28;;;8.33;100.00
47883;BME280;37739;50.350;7.578;2023-11-21T05:14:51;99313.81;;;8.32;100.00
47883;BME280;37739;50.350;7.578;2023-11-21T05:17:17;99322.16;;;8.28;100.00
47883;BME280;37739;50.350;7.578;2023-11-21T05:19:42;99326.22;;;8.22;100.00
47883;BME280;37739;50.350;7.578;2023-11-21T05:22:11;99331.34;;;8.22;100.00
47883;BME280;37739;50.350;7.578;2023-11-21T05:24:37;99322.16;;;8.28;100.00
47883;BME280;37739;50.350;7.578;2023-11-21T05:27:04;99330.50;;;8.23;100.00
47883;BME280;37739;50.350;7.578;2023-11-21T05:29:29;99322.75;;;8.20;100.00
47883;BME280;37739;50.350;7.578;2023-11-21T05:31:57;99330.41;;;8.20;100.00
47883;BME280;37739;50.350;7.578;2023-11-21T05:34:24;99324.44;;;8.20;100.00
47883;BME280;37739;50.350;7.578;2023-11-21T05:36:51;99325.38;;;8.22;100.00
47883;BME280;37739;50.350;7.578;2023-11-21T05:39:23;99325.09;;;8.16;100.00
47883;BME280;37739;50.350;7.578;2023-11-21T05:41:49;99330.47;;;8.22;100.00
47883;BME280;37739;50.350;7.578;2023-11-21T05:44:14;99334.88;;;8.26;100.00
47883;BME280;37739;50.350;7.578;2023-11-21T05:46:45;99334.97;;;8.29;100.00
47883;BME280;37739;50.350;7.578;2023-11-21T05:49:13;99336.38;;;8.21;100.00
47883;BME280;37739;50.350;7.578;2023-11-21T05:51:38;99331.28;;;8.21;100.00
47883;BME280;37739;50.350;7.578;2023-11-21T05:54:08;99335.38;;;8.17;100.00
47883;BME280;37739;50.350;7.578;2023-11-21T05:56:33;99340.50;;;8.17;100.00
47883;BME280;37739;50.350;7.578;2023-11-21T05:58:59;99345.75;;;8.20;100.00
47883;BME280;37739;50.350;7.578;2023-11-21T06:01:27;99347.47;;;8.21;100.00
47883;BME280;37739;50.350;7.578;2023-11-21T06:03:54;99351.22;;;8.30;100.00
47883;BME280;37739;50.350;7.578;2023-11-21T06:06:20;99349.09;;;8.19;100.00
47883;BME280;37739;50.350;7.578;2023-11-21T06:08:49;99360.31;;;8.23;100.00
47883;BME280;37739;50.350;7.578;2023-11-21T06:11:18;99362.16;;;8.27;100.00
47883;BME280;37739;50.350;7.578;2023-11-21T06:13:44;99370.06;;;8.33;100.00
47883;BME280;37739;50.350;7.578;2023-11-21T06:16:09;99367.41;;;8.30;100.00
47883;BME280;37739;50.350;7.578;2023-11-21T06:18:37;99370.47;;;8.21;100.00
47883;BME280;37739;50.350;7.578;2023-11-21T06:21:02;99378.19;;;8.23;100.00
47883;BME280;37739;50.350;7.578;2023-11-21T06:23:29;99386.63;;;8.20;100.00
47883;BME280;37739;50.350;7.578;2023-11-21T06:25:54;99383.44;;;8.26;100.00
47883;BME280;37739;50.350;7.578;2023-11-21T06:28:22;99384.47;;;8.31;100.00
47883;BME280;37739;50.350;7.578;2023-11-21T06:30:50;99386.47;;;8.38;100.00
47883;BME280;37739;50.350;7.578;2023-11-21T06:33:15;99391.22;;;8.29;100.00
47883;BME280;37739;50.350;7.578;2023-11-21T06:35:41;99400.72;;;8.33;100.00
47883;BME280;37739;50.350;7.578;2023-11-21T06:38:11;99405.84;;;8.33;100.00
47883;BME280;37739;50.350;7.578;2023-11-21T06:40:36;99411.03;;;8.35;100.00
47883;BME280;37739;50.350;7.578;2023-11-21T06:43:02;99415.28;;;8.34;100.00
47883;BME280;37739;50.350;7.578;2023-11-21T06:45:30;99414.91;;;8.25;100.00
47883;BME280;37739;50.350;7.578;2023-11-21T06:47:55;99418.16;;;8.21;100.00
47883;BME280;37739;50.350;7.578;2023-11-21T06:50:22;99414.53;;;8.16;100.00
47883;BME280;37739;50.350;7.578;2023-11-21T06:52:48;99421.78;;;8.26;100.00
47883;BME280;37739;50.350;7.578;2023-11-21T06:55:13;99420.94;;;8.27;100.00
47883;BME280;37739;50.350;7.578;2023-11-21T06:57:39;99426.88;;;8.26;100.00
47883;BME280;37739;50.350;7.578;2023-11-21T07:00:05;99425.81;;;8.21;100.00
47883;BME280;37739;50.350;7.578;2023-11-21T07:02:31;99435.16;;;8.20;100.00
47883;BME280;37739;50.350;7.578;2023-11-21T07:04:56;99442.00;;;8.21;100.00
47883;BME280;37739;50.350;7.578;2023-11-21T07:07:24;99447.19;;;8.23;100.00
47883;BME280;37739;50.350;7.578;2023-11-21T07:09:49;99445.47;;;8.22;100.00
47883;BME280;37739;50.350;7.578;2023-11-21T07:12:14;99445.72;;;8.28;100.00
47883;BME280;37739;50.350;7.578;2023-11-21T07:14:43;99448.81;;;8.21;100.00
47883;BME280;37739;50.350;7.578;2023-11-21T07:17:12;99460.09;;;8.26;100.00
47883;BME280;37739;50.350;7.578;2023-11-21T07:19:39;99459.97;;;8.23;100.00
47883;BME280;37739;50.350;7.578;2023-11-21T07:22:06;99461.59;;;8.21;100.00
47883;BME280;37739;50.350;7.578;2023-11-21T07:24:34;99468.72;;;8.28;100.00
47883;BME280;37739;50.350;7.578;2023-11-21T07:27:00;99473.38;;;8.38;100.00
47883;BME280;37739;50.350;7.578;2023-11-21T07:29:26;99481.22;;;8.41;100.00
47883;BME280;37739;50.350;7.578;2023-11-21T07:31:55;99480.63;;;8.49;100.00
47883;BME280;37739;50.350;7.578;2023-11-21T07:34:21;99488.25;;;8.47;100.00
47883;BME280;37739;50.350;7.578;2023-11-21T07:36:51;99495.97;;;8.49;100.00
47883;BME280;37739;50.350;7.578;2023-11-21T07:39:17;99498.28;;;8.42;100.00
47883;BME280;37739;50.350;7.578;2023-11-21T07:41:42;99502.34;;;8.39;100.00
47883;BME280;37739;50.350;7.578;2023-11-21T07:44:13;99504.81;;;8.36;100.00
47883;BME280;37739;50.350;7.578;2023-11-21T07:46:38;99507.47;;;8.39;100.00
47883;BME280;37739;50.350;7.578;2023-11-21T07:49:06;99503.19;;;8.38;100.00
47883;BME280;37739;50.350;7.578;2023-11-21T07:51:34;99509.97;;;8.37;100.00
47883;BME280;37739;50.350;7.578;2023-11-21T07:54:01;99514.16;;;8.35;100.00
47883;BME280;37739;50.350;7.578;2023-11-21T07:56:26;99518.44;;;8.36;100.00
47883;BME280;37739;50.350;7.578;2023-11-21T07:58:52;99523.63;;;8.38;100.00
47883;BME280;37739;50.350;7.578;2023-11-21T08:01:20;99528.22;;;8.45;100.00
47883;BME280;37739;50.350;7.578;2023-11-21T08:03:49;99524.66;;;8.41;100.00
47883;BME280;37739;50.350;7.578;2023-11-21T08:06:17;99533.09;;;8.40;100.00
47883;BME280;37739;50.350;7.578;2023-11-21T08:08:42;99540.69;;;8.39;100.00
47883;BME280;37739;50.350;7.578;2023-11-21T08:11:10;99538.13;;;8.39;100.00
47883;BME280;37739;50.350;7.578;2023-11-21T08:13:36;99549.88;;;8.34;100.00
47883;BME280;37739;50.350;7.578;2023-11-21T08:16:01;99555.59;;;8.28;100.00
47883;BME280;37739;50.350;7.578;2023-11-21T08:18:30;99548.00;;;8.30;100.00
47883;BME280;37739;50.350;7.578;2023-11-21T08:20:55;99556.41;;;8.27;100.00
47883;BME280;37739;50.350;7.578;2023-11-21T08:23:21;99556.41;;;8.27;100.00
47883;BME280;37739;50.350;7.578;2023-11-21T08:25:53;99557.94;;;8.23;100.00
47883;BME280;37739;50.350;7.578;2023-11-21T08:28:21;99561.44;;;8.25;100.00
47883;BME280;37739;50.350;7.578;2023-11-21T08:30:53;99558.34;;;8.33;100.00
47883;BME280;37739;50.350;7.578;2023-11-21T08:33:19;99560.28;;;8.38;100.00
47883;BME280;37739;50.350;7.578;2023-11-21T08:35:44;99558.75;;;8.42;100.00
47883;BME280;37739;50.350;7.578;2023-11-21T08:38:12;99563.41;;;8.51;100.00
47883;BME280;37739;50.350;7.578;2023-11-21T08:40:38;99570.00;;;8.45;100.00
47883;BME280;37739;50.350;7.578;2023-11-21T08:43:03;99569.72;;;8.39;100.00
47883;BME280;37739;50.350;7.578;2023-11-21T08:45:35;99567.38;;;8.44;100.00
47883;BME280;37739;50.350;7.578;2023-11-21T08:48:01;99570.78;;;8.44;100.00
47883;BME280;37739;50.350;7.578;2023-11-21T08:50:29;99574.28;;;8.47;100.00
47883;BME280;37739;50.350;7.578;2023-11-21T08:52:55;99571.00;;;8.49;100.00
47883;BME280;37739;50.350;7.578;2023-11-21T08:55:23;99570.25;;;8.52;100.00
47883;BME280;37739;50.350;7.578;2023-11-21T08:57:50;99573.97;;;8.60;100.00
47883;BME280;37739;50.350;7.578;2023-11-21T09:00:16;99585.09;;;8.60;100.00
47883;BME280;37739;50.350;7.578;2023-11-21T09:02:47;99582.53;;;8.60;100.00
47883;BME280;37739;50.350;7.578;2023-11-21T09:05:13;99585.09;;;8.60;100.00
47883;BME280;37739;50.350;7.578;2023-11-21T09:07:42;99588.63;;;8.64;100.00
47883;BME280;37739;50.350;7.578;2023-11-21T09:10:08;99586.22;;;8.67;100.00
47883;BME280;37739;50.350;7.578;2023-11-21T09:12:35;99596.50;;;8.69;100.00
47883;BME280;37739;50.350;7.578;2023-11-21T09:15:04;99595.06;;;8.75;100.00
47883;BME280;37739;50.350;7.578;2023-11-21T09:17:33;99600.38;;;8.80;100.00
47883;BME280;37739;50.350;7.578;2023-11-21T09:20:02;99594.75;;;8.89;100.00
47883;BME280;37739;50.350;7.578;2023-11-21T09:22:31;99603.50;;;8.94;100.00
47883;BME280;37739;50.350;7.578;2023-11-21T09:24:57;99602.97;;;9.02;100.00
47883;BME280;37739;50.350;7.578;2023-11-21T09:27:25;99607.66;;;9.13;100.00
47883;BME280;37739;50.350;7.578;2023-11-21T09:29:51;99610.22;;;9.13;100.00
47883;BME280;37739;50.350;7.578;2023-11-21T09:32:17;99616.84;;;9.08;100.00
47883;BME280;37739;50.350;7.578;2023-11-21T09:34:46;99616.91;;;9.09;100.00
47883;BME280;37739;50.350;7.578;2023-11-21T09:37:11;99625.28;;;9.05;100.00
47883;BME280;37739;50.350;7.578;2023-11-21T09:39:42;99627.00;;;9.06;100.00
47883;BME280;37739;50.350;7.578;2023-11-21T09:42:21;99631.03;;;8.99;100.00
47883;BME280;37739;50.350;7.578;2023-11-21T09:45:03;99638.63;;;8.98;100.00
47883;BME280;37739;50.350;7.578;2023-11-21T09:47:29;99638.88;;;9.04;100.00
47883;BME280;37739;50.350;7.578;2023-11-21T09:49:56;99645.50;;;8.99;100.00
47883;BME280;37739;50.350;7.578;2023-11-21T09:52:26;99648.06;;;8.99;100.00
47883;BME280;37739;50.350;7.578;2023-11-21T09:54:53;99651.66;;;9.04;100.00
47883;BME280;37739;50.350;7.578;2023-11-21T09:57:24;99647.47;;;9.06;100.00
47883;BME280;37739;50.350;7.578;2023-11-21T09:59:54;99652.91;;;8.93;100.00
47883;BME280;37739;50.350;7.578;2023-11-21T10:02:26;99660.34;;;8.87;100.00
47883;BME280;37739;50.350;7.578;2023-11-21T10:04:52;99658.59;;;8.86;100.00
47883;BME280;37739;50.350;7.578;2023-11-21T10:07:19;99657.41;;;8.98;100.00
47883;BME280;37739;50.350;7.578;2023-11-21T10:09:46;99664.69;;;9.10;100.00
47883;BME280;37739;50.350;7.578;2023-11-21T10:12:14;99657.28;;;9.16;100.00
47883;BME280;37739;50.350;7.578;2023-11-21T10:14:48;99656.38;;;9.14;100.00
47883;BME280;37739;50.350;7.578;2023-11-21T10:17:15;99666.59;;;9.14;100.00
47883;BME280;37739;50.350;7.578;2023-11-21T10:19:51;99671.03;;;9.18;100.00
47883;BME280;37739;50.350;7.578;2023-11-21T10:22:19;99666.22;;;9.26;100.00
47883;BME280;37739;50.350;7.578;2023-11-21T10:24:48;99668.72;;;9.24;100.00
47883;BME280;37739;50.350;7.578;2023-11-21T10:27:13;99672.34;;;9.30;100.00
47883;BME280;37739;50.350;7.578;2023-11-21T10:29:44;99675.88;;;9.33;100.00
47883;BME280;37739;50.350;7.578;2023-11-21T10:32:09;99666.94;;;9.23;100.00
47883;BME280;37739;50.350;7.578;2023-11-21T10:34:37;99670.88;;;9.15;100.00
47883;BME280;37739;50.350;7.578;2023-11-21T10:37:20;99666.63;;;9.16;100.00
47883;BME280;37739;50.350;7.578;2023-11-21T10:39:45;99667.53;;;9.16;100.00
47883;BME280;37739;50.350;7.578;2023-11-21T10:42:11;99661.91;;;9.25;100.00
47883;BME280;37739;50.350;7.578;2023-11-21T10:44:41;99669.00;;;9.32;100.00
47883;BME280;37739;50.350;7.578;2023-11-21T10:47:09;99666.28;;;9.28;100.00
47883;BME280;37739;50.350;7.578;2023-11-21T10:49:37;99666.09;;;9.23;100.00
47883;BME280;37739;50.350;7.578;2023-11-21T10:52:03;99673.06;;;9.27;100.00
47883;BME280;37739;50.350;7.578;2023-11-21T10:54:29;99672.97;;;9.24;100.00
47883;BME280;37739;50.350;7.578;2023-11-21T10:56:59;99675.56;;;9.26;100.00
47883;BME280;37739;50.350;7.578;2023-11-21T10:59:28;99672.28;;;9.28;100.00
47883;BME280;37739;50.350;7.578;2023-11-21T11:01:57;99683.94;;;9.21;100.00
47883;BME280;37739;50.350;7.578;2023-11-21T11:04:25;99687.19;;;9.17;100.00
47883;BME280;37739;50.350;7.578;2023-11-21T11:06:57;99686.38;;;9.18;100.00
47883;BME280;37739;50.350;7.578;2023-11-21T11:09:28;99682.28;;;9.22;100.00
47883;BME280;37739;50.350;7.578;2023-11-21T11:11:55;99680.94;;;9.32;100.00
47883;BME280;37739;50.350;7.578;2023-11-21T11:14:22;99686.41;;;9.41;100.00
47883;BME280;37739;50.350;7.578;2023-11-21T11:16:53;99673.69;;;9.42;100.00
47883;BME280;37739;50.350;7.578;2023-11-21T11:19:19;99680.94;;;9.53;100.00
47883;BME280;37739;50.350;7.578;2023-11-21T11:21:56;99672.00;;;9.66;100.00
47883;BME280;37739;50.350;7.578;2023-11-21T11:30:22;99671.66;;;9.56;100.00
47883;BME280;37739;50.350;7.578;2023-11-21T11:36:36;99681.91;;;9.56;100.00
47883;BME280;37739;50.350;7.578;2023-11-21T11:39:02;99684.41;;;9.55;100.00
47883;BME280;37739;50.350;7.578;2023-11-21T11:41:31;99681.50;;;9.46;100.00
47883;BME280;37739;50.350;7.578;2023-11-21T11:44:02;99682.97;;;9.40;100.00
47883;BME280;37739;50.350;7.578;2023-11-21T11:46:41;99686.38;;;9.39;100.00
47883;BME280;37739;50.350;7.578;2023-11-21T11:49:07;99685.53;;;9.40;100.00
47883;BME280;37739;50.350;7.578;2023-11-21T11:51:33;99689.03;;;9.42;100.00
47883;BME280;37739;50.350;7.578;2023-11-21T11:54:01;99695.38;;;9.51;100.00
47883;BME280;37739;50.350;7.578;2023-11-21T11:56:31;99691.84;;;9.49;100.00
47883;BME280;37739;50.350;7.578;2023-11-21T11:59:06;99690.91;;;9.47;100.00
47883;BME280;37739;50.350;7.578;2023-11-21T12:01:34;99687.41;;;9.44;100.00
47883;BME280;37739;50.350;7.578;2023-11-21T12:06:45;99687.97;;;9.58;100.00
47883;BME280;37739;50.350;7.578;2023-11-21T12:09:26;99689.28;;;9.49;100.00
47883;BME280;37739;50.350;7.578;2023-11-21T12:11:57;99690.44;;;9.34;100.00
47883;BME280;37739;50.350;7.578;2023-11-21T12:14:28;99688.94;;;9.39;100.00
47883;BME280;37739;50.350;7.578;2023-11-21T12:16:54;99695.06;;;9.43;100.00
47883;BME280;37739;50.350;7.578;2023-11-21T12:19:20;99709.44;;;9.41;100.00
47883;BME280;37739;50.350;7.578;2023-11-21T12:21:46;99702.06;;;9.49;100.00
47883;BME280;37739;50.350;7.578;2023-11-21T12:24:16;99705.59;;;9.51;100.00
47883;BME280;37739;50.350;7.578;2023-11-21T12:26:42;99703.34;;;9.58;100.00
47883;BME280;37739;50.350;7.578;2023-11-21T12:29:08;99705.06;;;9.59;100.00
47883;BME280;37739;50.350;7.578;2023-11-21T12:31:38;99708.41;;;9.57;100.00
47883;BME280;37739;50.350;7.578;2023-11-21T12:34:05;99706.41;;;9.50;100.00
47883;BME280;37739;50.350;7.578;2023-11-21T12:36:37;99710.34;;;9.41;100.00
47883;BME280;37739;50.350;7.578;2023-11-21T12:39:11;99711.22;;;9.42;100.00
47883;BME280;37739;50.350;7.578;2023-11-21T12:41:44;99722.53;;;9.47;100.00
47883;BME280;37739;50.350;7.578;2023-11-21T12:44:12;99723.47;;;9.49;100.00
47883;BME280;37739;50.350;7.578;2023-11-21T12:46:44;99725.31;;;9.53;100.00
47883;BME280;37739;50.350;7.578;2023-11-21T12:49:14;99719.75;;;9.63;100.00
47883;BME280;37739;50.350;7.578;2023-11-21T12:51:45;99725.81;;;9.66;100.00
47883;BME280;37739;50.350;7.578;2023-11-21T12:54:11;99733.69;;;9.70;100.00
47883;BME280;37739;50.350;7.578;2023-11-21T12:56:40;99737.69;;;9.63;100.00
47883;BME280;37739;50.350;7.578;2023-11-21T12:59:08;99747.22;;;9.68;100.00
47883;BME280;37739;50.350;7.578;2023-11-21T13:01:43;99739.59;;;9.69;100.00
47883;BME280;37739;50.350;7.578;2023-11-21T13:04:08;99742.94;;;9.67;100.00
47883;BME280;37739;50.350;7.578;2023-11-21T13:06:36;99744.03;;;9.73;100.00
47883;BME280;37739;50.350;7.578;2023-11-21T13:09:07;99751.31;;;9.62;100.00
47883;BME280;37739;50.350;7.578;2023-11-21T13:11:36;99752.00;;;9.58;100.00
47883;BME280;37739;50.350;7.578;2023-11-21T13:14:02;99746.81;;;9.57;100.00